Pringle, SD (57773)

6:45 AM MST on February 07, 2016 (GMT -0700)
RAWS | | Change Station
CLOSE
Current Station
Personal Weather Station
Location: Pringle, SD
Elevation: 4110 ft
Nearby Weather Stations
Active Advisory: High Wind Warning

Elev 4110 ft 43.56 °N, 103.49 °W | Updated 14 hours ago

Partly Cloudy
Partly Cloudy
29 °F
Feels Like 13 °F
N
30
Wind Variable Wind from NW
Gusts 50 mph

Today
High -- | Low -- °F
--% Chance of Precip.
Yesterday
High -- | Low -- °F
Precip. -- in
Pressure 30.14 in
Visibility 10.0 miles
Clouds Scattered Clouds 4500 ft
Windchill 13 °F
Dew Point 11 °F
Humidity 46%
Rainfall in
Snow Depth Not available.
7:04 AM 5:13 PM
Waning Crescent, 1% visible
METAR KCUT 071253Z AUTO 32016G28KT 10SM SCT045 M04/M14 A3006 RMK AO2 PK WND 32033/1203 SLP206 T10391139
Pressure 30.14 in
Visibility 10.0 miles
Clouds Scattered Clouds 4500 ft
Windchill 13 °F
Dew Point 11 °F
Humidity 46%
Rainfall in
Snow Depth Not available.
7:04 AM 5:13 PM
Waning Crescent, 1% visible
METAR KCUT 071253Z AUTO 32016G28KT 10SM SCT045 M04/M14 A3006 RMK AO2 PK WND 32033/1203 SLP206 T10391139

10-Day Weather Forecast

Almanac

Astronomy

Feb. 07, 2016 Rise Set
Actual Time
Civil Twilight
Nautical Twilight
Astronomical Twilight
Moon
Length of Visible Light
Length of Day
Tomorrow will be .
, % of the Moon is Illuminated

Today's Extremes

State Highs State Lows

Community

WunderPhotos

Upload Photos

1,891,190 photos uploaded!

WunderBlog® & News

Nearby

Air Quality

  Air Quality AQ Index Pollutant
Not available.

Snow Depth

Station Depth Elevation

Earthquake Activity

City Distance Mag. Time & Date
Minimum magnitude displayed is 2.5.

Coastal Water Temperatures

Place Temperature

Stations

Nearby Weather Stations

Station Location Temp. Windchill Dew Point Humidity Wind Precip. Elev Updated Type
                   

Watches & Warnings

High Wind Warning
Issued: 2:04 AM MST Feb. 7, 2016 – National Weather Service

... High Wind Warning remains in effect until 8 PM MST this
evening...

* timing... gusty winds today... gradually decreasing this evening.

* Winds... northwest winds increasing to 25 to 35 mph with gusts
up to 60 mph.

* Impacts... the high winds may lead to several dead trees
falling down on roads and trails.